sensor_id;sensor_type;location;lat;lon;timestamp;P1;durP1;ratioP1;P2;durP2;ratioP2
19257;SDS011;9763;48.780;9.212;2022-07-22T00:02:00;2.60;;;2.40;;
19257;SDS011;9763;48.780;9.212;2022-07-22T00:05:26;2.33;;;2.13;;
19257;SDS011;9763;48.780;9.212;2022-07-22T00:08:55;2.63;;;2.40;;
19257;SDS011;9763;48.780;9.212;2022-07-22T00:12:20;2.60;;;2.40;;
19257;SDS011;9763;48.780;9.212;2022-07-22T00:15:46;5.77;;;2.20;;
19257;SDS011;9763;48.780;9.212;2022-07-22T00:19:10;2.50;;;2.30;;
19257;SDS011;9763;48.780;9.212;2022-07-22T00:22:34;2.10;;;1.90;;
19257;SDS011;9763;48.780;9.212;2022-07-22T00:25:58;2.37;;;2.10;;
19257;SDS011;9763;48.780;9.212;2022-07-22T00:29:22;3.20;;;2.30;;
19257;SDS011;9763;48.780;9.212;2022-07-22T00:32:47;3.37;;;2.20;;
19257;SDS011;9763;48.780;9.212;2022-07-22T00:36:12;2.40;;;2.20;;
19257;SDS011;9763;48.780;9.212;2022-07-22T00:39:37;2.57;;;2.37;;
19257;SDS011;9763;48.780;9.212;2022-07-22T00:43:02;2.63;;;2.40;;
19257;SDS011;9763;48.780;9.212;2022-07-22T00:46:26;2.40;;;2.20;;
19257;SDS011;9763;48.780;9.212;2022-07-22T00:49:55;2.70;;;2.50;;
19257;SDS011;9763;48.780;9.212;2022-07-22T00:53:19;2.43;;;2.23;;
19257;SDS011;9763;48.780;9.212;2022-07-22T00:56:44;2.23;;;2.10;;
19257;SDS011;9763;48.780;9.212;2022-07-22T01:00:10;2.73;;;2.50;;
19257;SDS011;9763;48.780;9.212;2022-07-22T01:03:38;2.60;;;2.40;;
19257;SDS011;9763;48.780;9.212;2022-07-22T01:07:12;3.03;;;2.20;;
19257;SDS011;9763;48.780;9.212;2022-07-22T01:10:36;3.00;;;2.73;;
19257;SDS011;9763;48.780;9.212;2022-07-22T01:14:00;3.20;;;2.20;;
19257;SDS011;9763;48.780;9.212;2022-07-22T01:17:24;3.60;;;2.60;;
19257;SDS011;9763;48.780;9.212;2022-07-22T01:20:53;2.87;;;2.53;;
19257;SDS011;9763;48.780;9.212;2022-07-22T01:24:17;2.40;;;2.20;;
19257;SDS011;9763;48.780;9.212;2022-07-22T01:27:41;2.80;;;2.50;;
19257;SDS011;9763;48.780;9.212;2022-07-22T01:31:06;3.40;;;2.30;;
19257;SDS011;9763;48.780;9.212;2022-07-22T01:34:31;2.63;;;2.43;;
19257;SDS011;9763;48.780;9.212;2022-07-22T01:37:56;3.90;;;2.70;;
19257;SDS011;9763;48.780;9.212;2022-07-22T01:41:20;2.90;;;2.57;;
19257;SDS011;9763;48.780;9.212;2022-07-22T01:44:45;2.53;;;2.33;;
19257;SDS011;9763;48.780;9.212;2022-07-22T01:48:09;2.83;;;2.63;;
19257;SDS011;9763;48.780;9.212;2022-07-22T01:51:35;2.83;;;2.63;;
19257;SDS011;9763;48.780;9.212;2022-07-22T01:55:02;2.67;;;2.47;;
19257;SDS011;9763;48.780;9.212;2022-07-22T01:58:28;2.47;;;2.27;;
19257;SDS011;9763;48.780;9.212;2022-07-22T02:02:01;2.83;;;2.63;;
19257;SDS011;9763;48.780;9.212;2022-07-22T02:05:25;2.90;;;2.50;;
19257;SDS011;9763;48.780;9.212;2022-07-22T02:08:53;2.97;;;2.77;;
19257;SDS011;9763;48.780;9.212;2022-07-22T02:12:28;2.73;;;2.53;;
19257;SDS011;9763;48.780;9.212;2022-07-22T02:15:52;3.03;;;2.83;;
19257;SDS011;9763;48.780;9.212;2022-07-22T02:19:15;3.47;;;3.17;;
19257;SDS011;9763;48.780;9.212;2022-07-22T02:22:39;3.13;;;2.70;;
19257;SDS011;9763;48.780;9.212;2022-07-22T02:26:03;3.57;;;2.47;;
19257;SDS011;9763;48.780;9.212;2022-07-22T02:29:28;3.20;;;2.90;;
19257;SDS011;9763;48.780;9.212;2022-07-22T02:32:52;3.27;;;2.67;;
19257;SDS011;9763;48.780;9.212;2022-07-22T02:36:16;2.53;;;2.33;;
19257;SDS011;9763;48.780;9.212;2022-07-22T02:39:41;3.27;;;2.97;;
19257;SDS011;9763;48.780;9.212;2022-07-22T02:43:05;2.20;;;2.00;;
19257;SDS011;9763;48.780;9.212;2022-07-22T02:46:30;2.63;;;2.37;;
19257;SDS011;9763;48.780;9.212;2022-07-22T02:50:04;2.40;;;2.20;;
19257;SDS011;9763;48.780;9.212;2022-07-22T02:53:28;3.80;;;2.73;;
19257;SDS011;9763;48.780;9.212;2022-07-22T02:56:54;3.10;;;2.80;;
19257;SDS011;9763;48.780;9.212;2022-07-22T03:00:19;2.90;;;2.70;;
19257;SDS011;9763;48.780;9.212;2022-07-22T03:03:45;2.97;;;2.77;;
19257;SDS011;9763;48.780;9.212;2022-07-22T03:07:09;3.60;;;3.30;;
19257;SDS011;9763;48.780;9.212;2022-07-22T03:10:34;3.40;;;3.20;;
19257;SDS011;9763;48.780;9.212;2022-07-22T03:13:57;3.37;;;3.10;;
19257;SDS011;9763;48.780;9.212;2022-07-22T03:17:22;3.90;;;3.50;;
19257;SDS011;9763;48.780;9.212;2022-07-22T03:20:48;4.00;;;3.70;;
19257;SDS011;9763;48.780;9.212;2022-07-22T03:24:12;3.57;;;3.30;;
19257;SDS011;9763;48.780;9.212;2022-07-22T03:27:36;4.00;;;3.70;;
19257;SDS011;9763;48.780;9.212;2022-07-22T03:30:59;3.97;;;3.57;;
19257;SDS011;9763;48.780;9.212;2022-07-22T03:34:23;3.87;;;3.57;;
19257;SDS011;9763;48.780;9.212;2022-07-22T03:37:56;5.30;;;3.70;;
19257;SDS011;9763;48.780;9.212;2022-07-22T03:41:22;4.80;;;4.40;;
19257;SDS011;9763;48.780;9.212;2022-07-22T03:44:46;4.43;;;4.13;;
19257;SDS011;9763;48.780;9.212;2022-07-22T03:48:10;3.80;;;3.50;;
19257;SDS011;9763;48.780;9.212;2022-07-22T03:51:34;3.50;;;3.20;;
19257;SDS011;9763;48.780;9.212;2022-07-22T03:54:59;3.60;;;3.30;;
19257;SDS011;9763;48.780;9.212;2022-07-22T03:58:23;4.27;;;3.53;;
19257;SDS011;9763;48.780;9.212;2022-07-22T04:01:48;4.17;;;3.77;;
19257;SDS011;9763;48.780;9.212;2022-07-22T04:05:12;4.00;;;3.70;;
19257;SDS011;9763;48.780;9.212;2022-07-22T04:08:37;3.90;;;3.60;;
19257;SDS011;9763;48.780;9.212;2022-07-22T04:12:03;3.80;;;3.50;;
19257;SDS011;9763;48.780;9.212;2022-07-22T04:15:36;3.40;;;3.10;;
19257;SDS011;9763;48.780;9.212;2022-07-22T04:19:00;3.60;;;3.30;;
19257;SDS011;9763;48.780;9.212;2022-07-22T04:22:43;3.03;;;2.83;;
19257;SDS011;9763;48.780;9.212;2022-07-22T04:26:06;3.60;;;3.30;;
19257;SDS011;9763;48.780;9.212;2022-07-22T04:29:32;5.10;;;3.10;;
19257;SDS011;9763;48.780;9.212;2022-07-22T04:32:55;3.50;;;3.20;;
19257;SDS011;9763;48.780;9.212;2022-07-22T04:36:20;2.90;;;2.70;;
19257;SDS011;9763;48.780;9.212;2022-07-22T04:39:47;3.17;;;2.97;;
19257;SDS011;9763;48.780;9.212;2022-07-22T04:43:11;3.50;;;3.20;;
19257;SDS011;9763;48.780;9.212;2022-07-22T04:46:36;3.30;;;2.97;;
19257;SDS011;9763;48.780;9.212;2022-07-22T04:50:00;3.23;;;2.93;;
19257;SDS011;9763;48.780;9.212;2022-07-22T04:53:24;3.23;;;3.03;;
19257;SDS011;9763;48.780;9.212;2022-07-22T04:57:05;3.23;;;3.03;;
19257;SDS011;9763;48.780;9.212;2022-07-22T05:00:28;3.60;;;3.20;;
19257;SDS011;9763;48.780;9.212;2022-07-22T05:03:53;3.80;;;3.00;;
19257;SDS011;9763;48.780;9.212;2022-07-22T05:07:17;3.17;;;2.87;;
19257;SDS011;9763;48.780;9.212;2022-07-22T05:10:41;3.67;;;3.37;;
19257;SDS011;9763;48.780;9.212;2022-07-22T05:14:05;4.20;;;3.80;;
19257;SDS011;9763;48.780;9.212;2022-07-22T05:17:29;3.20;;;3.00;;
19257;SDS011;9763;48.780;9.212;2022-07-22T05:21:10;3.40;;;3.20;;
19257;SDS011;9763;48.780;9.212;2022-07-22T05:24:34;3.73;;;3.40;;
19257;SDS011;9763;48.780;9.212;2022-07-22T05:27:58;3.70;;;3.40;;
19257;SDS011;9763;48.780;9.212;2022-07-22T05:31:27;3.17;;;2.97;;
19257;SDS011;9763;48.780;9.212;2022-07-22T05:34:51;3.10;;;2.80;;
19257;SDS011;9763;48.780;9.212;2022-07-22T05:38:16;3.50;;;3.20;;
19257;SDS011;9763;48.780;9.212;2022-07-22T05:41:39;3.13;;;2.93;;
19257;SDS011;9763;48.780;9.212;2022-07-22T05:45:03;3.27;;;2.97;;
19257;SDS011;9763;48.780;9.212;2022-07-22T05:48:28;3.10;;;2.87;;
19257;SDS011;9763;48.780;9.212;2022-07-22T05:51:52;3.27;;;3.07;;
19257;SDS011;9763;48.780;9.212;2022-07-22T05:55:17;3.50;;;3.20;;
19257;SDS011;9763;48.780;9.212;2022-07-22T05:58:42;4.40;;;3.70;;
19257;SDS011;9763;48.780;9.212;2022-07-22T06:02:07;4.33;;;3.17;;
19257;SDS011;9763;48.780;9.212;2022-07-22T06:05:35;3.60;;;3.30;;
19257;SDS011;9763;48.780;9.212;2022-07-22T06:09:05;3.40;;;3.07;;
19257;SDS011;9763;48.780;9.212;2022-07-22T06:12:31;3.60;;;3.30;;
19257;SDS011;9763;48.780;9.212;2022-07-22T06:15:54;3.10;;;2.90;;
19257;SDS011;9763;48.780;9.212;2022-07-22T06:19:18;3.60;;;3.30;;
19257;SDS011;9763;48.780;9.212;2022-07-22T06:22:42;3.97;;;3.00;;
19257;SDS011;9763;48.780;9.212;2022-07-22T06:26:06;4.50;;;3.03;;
19257;SDS011;9763;48.780;9.212;2022-07-22T06:29:31;2.87;;;2.67;;
19257;SDS011;9763;48.780;9.212;2022-07-22T06:32:55;3.30;;;3.10;;
19257;SDS011;9763;48.780;9.212;2022-07-22T06:36:19;3.20;;;2.70;;
19257;SDS011;9763;48.780;9.212;2022-07-22T06:39:42;3.10;;;2.90;;
19257;SDS011;9763;48.780;9.212;2022-07-22T06:43:14;3.70;;;2.80;;
19257;SDS011;9763;48.780;9.212;2022-07-22T06:47:02;3.70;;;3.40;;
19257;SDS011;9763;48.780;9.212;2022-07-22T06:50:26;4.00;;;3.60;;
19257;SDS011;9763;48.780;9.212;2022-07-22T06:53:50;3.30;;;3.00;;
19257;SDS011;9763;48.780;9.212;2022-07-22T06:57:14;2.50;;;2.30;;
19257;SDS011;9763;48.780;9.212;2022-07-22T07:00:37;3.20;;;2.73;;
19257;SDS011;9763;48.780;9.212;2022-07-22T07:04:32;3.27;;;3.00;;
19257;SDS011;9763;48.780;9.212;2022-07-22T07:07:56;3.10;;;2.80;;
19257;SDS011;9763;48.780;9.212;2022-07-22T07:11:20;3.40;;;3.10;;
19257;SDS011;9763;48.780;9.212;2022-07-22T07:14:44;5.17;;;2.80;;
19257;SDS011;9763;48.780;9.212;2022-07-22T07:18:27;3.33;;;2.70;;
19257;SDS011;9763;48.780;9.212;2022-07-22T07:21:52;3.20;;;2.90;;
19257;SDS011;9763;48.780;9.212;2022-07-22T07:25:16;3.70;;;3.33;;
19257;SDS011;9763;48.780;9.212;2022-07-22T07:28:46;3.77;;;3.47;;
19257;SDS011;9763;48.780;9.212;2022-07-22T07:32:43;2.83;;;2.63;;
19257;SDS011;9763;48.780;9.212;2022-07-22T07:36:07;2.83;;;2.60;;
19257;SDS011;9763;48.780;9.212;2022-07-22T07:39:36;2.70;;;2.50;;
19257;SDS011;9763;48.780;9.212;2022-07-22T07:43:02;3.10;;;2.90;;
19257;SDS011;9763;48.780;9.212;2022-07-22T07:46:26;3.03;;;2.83;;
19257;SDS011;9763;48.780;9.212;2022-07-22T07:49:51;2.90;;;2.70;;
19257;SDS011;9763;48.780;9.212;2022-07-22T07:53:16;3.73;;;3.10;;
19257;SDS011;9763;48.780;9.212;2022-07-22T07:56:42;3.03;;;2.73;;
19257;SDS011;9763;48.780;9.212;2022-07-22T08:00:07;3.03;;;2.73;;
19257;SDS011;9763;48.780;9.212;2022-07-22T08:03:39;2.90;;;2.70;;
19257;SDS011;9763;48.780;9.212;2022-07-22T08:07:04;3.43;;;3.17;;
19257;SDS011;9763;48.780;9.212;2022-07-22T08:10:31;2.90;;;2.70;;
19257;SDS011;9763;48.780;9.212;2022-07-22T08:14:34;4.43;;;2.80;;
19257;SDS011;9763;48.780;9.212;2022-07-22T08:18:21;4.93;;;2.63;;
19257;SDS011;9763;48.780;9.212;2022-07-22T08:21:44;3.13;;;2.83;;
19257;SDS011;9763;48.780;9.212;2022-07-22T08:25:18;2.77;;;2.57;;
19257;SDS011;9763;48.780;9.212;2022-07-22T08:28:44;3.47;;;2.77;;
19257;SDS011;9763;48.780;9.212;2022-07-22T08:32:10;2.57;;;2.37;;
19257;SDS011;9763;48.780;9.212;2022-07-22T08:35:34;3.40;;;3.00;;
19257;SDS011;9763;48.780;9.212;2022-07-22T08:38:58;3.27;;;2.33;;
19257;SDS011;9763;48.780;9.212;2022-07-22T08:42:24;2.53;;;2.33;;
19257;SDS011;9763;48.780;9.212;2022-07-22T08:45:48;2.67;;;2.47;;
19257;SDS011;9763;48.780;9.212;2022-07-22T08:49:14;2.60;;;2.40;;
19257;SDS011;9763;48.780;9.212;2022-07-22T08:52:51;2.50;;;2.30;;
19257;SDS011;9763;48.780;9.212;2022-07-22T08:56:15;3.20;;;2.90;;
19257;SDS011;9763;48.780;9.212;2022-07-22T08:59:49;5.63;;;2.60;;
19257;SDS011;9763;48.780;9.212;2022-07-22T09:03:19;2.47;;;2.27;;
19257;SDS011;9763;48.780;9.212;2022-07-22T09:06:50;2.57;;;2.37;;
19257;SDS011;9763;48.780;9.212;2022-07-22T09:10:14;2.97;;;2.30;;
19257;SDS011;9763;48.780;9.212;2022-07-22T09:13:59;2.63;;;2.37;;
19257;SDS011;9763;48.780;9.212;2022-07-22T09:17:38;3.53;;;3.03;;
19257;SDS011;9763;48.780;9.212;2022-07-22T09:21:23;2.63;;;2.30;;
19257;SDS011;9763;48.780;9.212;2022-07-22T09:29:09;2.27;;;2.07;;
19257;SDS011;9763;48.780;9.212;2022-07-22T09:32:59;2.70;;;2.40;;
19257;SDS011;9763;48.780;9.212;2022-07-22T09:36:31;2.63;;;2.33;;
19257;SDS011;9763;48.780;9.212;2022-07-22T09:40:22;2.33;;;2.13;;
19257;SDS011;9763;48.780;9.212;2022-07-22T09:43:50;2.47;;;2.27;;
19257;SDS011;9763;48.780;9.212;2022-07-22T09:47:26;2.70;;;2.50;;
19257;SDS011;9763;48.780;9.212;2022-07-22T09:51:18;2.40;;;2.20;;
19257;SDS011;9763;48.780;9.212;2022-07-22T09:54:58;2.53;;;2.33;;
19257;SDS011;9763;48.780;9.212;2022-07-22T09:58:30;2.30;;;2.10;;
19257;SDS011;9763;48.780;9.212;2022-07-22T10:01:58;2.57;;;2.37;;
19257;SDS011;9763;48.780;9.212;2022-07-22T10:05:29;2.53;;;2.33;;
19257;SDS011;9763;48.780;9.212;2022-07-22T10:08:56;2.80;;;2.60;;
19257;SDS011;9763;48.780;9.212;2022-07-22T10:12:30;2.33;;;2.13;;
19257;SDS011;9763;48.780;9.212;2022-07-22T10:15:57;2.60;;;2.40;;
19257;SDS011;9763;48.780;9.212;2022-07-22T10:19:23;2.40;;;2.20;;
19257;SDS011;9763;48.780;9.212;2022-07-22T10:22:48;3.23;;;2.57;;
19257;SDS011;9763;48.780;9.212;2022-07-22T10:26:20;2.33;;;2.13;;
19257;SDS011;9763;48.780;9.212;2022-07-22T10:30:12;2.67;;;2.47;;
19257;SDS011;9763;48.780;9.212;2022-07-22T10:33:38;2.63;;;2.23;;
19257;SDS011;9763;48.780;9.212;2022-07-22T10:37:03;2.30;;;2.10;;
19257;SDS011;9763;48.780;9.212;2022-07-22T10:40:27;2.40;;;2.20;;
19257;SDS011;9763;48.780;9.212;2022-07-22T10:43:53;2.47;;;2.27;;
19257;SDS011;9763;48.780;9.212;2022-07-22T10:47:17;2.77;;;2.23;;
19257;SDS011;9763;48.780;9.212;2022-07-22T10:51:18;2.30;;;2.10;;
19257;SDS011;9763;48.780;9.212;2022-07-22T10:58:40;2.40;;;2.20;;
19257;SDS011;9763;48.780;9.212;2022-07-22T11:02:13;2.40;;;2.20;;
19257;SDS011;9763;48.780;9.212;2022-07-22T11:05:41;2.30;;;2.10;;
19257;SDS011;9763;48.780;9.212;2022-07-22T11:09:07;3.43;;;3.13;;
19257;SDS011;9763;48.780;9.212;2022-07-22T11:12:32;2.67;;;2.47;;
19257;SDS011;9763;48.780;9.212;2022-07-22T11:16:12;2.50;;;2.30;;
19257;SDS011;9763;48.780;9.212;2022-07-22T11:19:38;2.70;;;2.50;;
19257;SDS011;9763;48.780;9.212;2022-07-22T11:23:02;2.50;;;2.07;;
19257;SDS011;9763;48.780;9.212;2022-07-22T11:26:32;2.50;;;2.00;;
19257;SDS011;9763;48.780;9.212;2022-07-22T11:30:02;2.10;;;2.00;;
19257;SDS011;9763;48.780;9.212;2022-07-22T11:33:28;2.37;;;2.17;;
19257;SDS011;9763;48.780;9.212;2022-07-22T11:36:53;2.30;;;2.13;;
19257;SDS011;9763;48.780;9.212;2022-07-22T11:40:18;2.43;;;2.23;;
19257;SDS011;9763;48.780;9.212;2022-07-22T11:43:44;2.23;;;2.03;;
19257;SDS011;9763;48.780;9.212;2022-07-22T11:47:10;2.57;;;2.37;;
19257;SDS011;9763;48.780;9.212;2022-07-22T11:50:34;2.73;;;1.70;;
19257;SDS011;9763;48.780;9.212;2022-07-22T11:53:58;3.57;;;2.33;;
19257;SDS011;9763;48.780;9.212;2022-07-22T11:57:22;2.20;;;2.00;;
19257;SDS011;9763;48.780;9.212;2022-07-22T12:00:47;2.10;;;2.00;;
19257;SDS011;9763;48.780;9.212;2022-07-22T12:04:12;2.27;;;2.07;;
19257;SDS011;9763;48.780;9.212;2022-07-22T12:07:40;2.47;;;2.27;;
19257;SDS011;9763;48.780;9.212;2022-07-22T12:11:04;2.30;;;1.97;;
19257;SDS011;9763;48.780;9.212;2022-07-22T12:14:28;3.50;;;2.13;;
19257;SDS011;9763;48.780;9.212;2022-07-22T12:17:55;2.37;;;2.17;;
19257;SDS011;9763;48.780;9.212;2022-07-22T12:21:49;2.23;;;2.03;;
19257;SDS011;9763;48.780;9.212;2022-07-22T12:25:16;2.10;;;1.90;;
19257;SDS011;9763;48.780;9.212;2022-07-22T12:28:40;2.63;;;1.83;;
19257;SDS011;9763;48.780;9.212;2022-07-22T12:32:05;2.33;;;2.13;;
19257;SDS011;9763;48.780;9.212;2022-07-22T12:35:32;2.10;;;1.90;;
19257;SDS011;9763;48.780;9.212;2022-07-22T12:38:56;2.30;;;2.10;;
19257;SDS011;9763;48.780;9.212;2022-07-22T12:42:20;2.40;;;2.20;;
19257;SDS011;9763;48.780;9.212;2022-07-22T12:45:44;2.33;;;2.13;;
19257;SDS011;9763;48.780;9.212;2022-07-22T12:49:08;2.20;;;2.00;;
19257;SDS011;9763;48.780;9.212;2022-07-22T12:52:35;2.70;;;2.40;;
19257;SDS011;9763;48.780;9.212;2022-07-22T12:56:19;2.87;;;2.07;;
19257;SDS011;9763;48.780;9.212;2022-07-22T12:59:50;2.10;;;1.90;;
19257;SDS011;9763;48.780;9.212;2022-07-22T13:03:15;1.70;;;1.60;;
19257;SDS011;9763;48.780;9.212;2022-07-22T13:06:41;2.20;;;2.00;;
19257;SDS011;9763;48.780;9.212;2022-07-22T13:10:07;2.20;;;1.90;;
19257;SDS011;9763;48.780;9.212;2022-07-22T13:13:31;2.20;;;2.00;;
19257;SDS011;9763;48.780;9.212;2022-07-22T13:16:55;2.67;;;2.03;;
19257;SDS011;9763;48.780;9.212;2022-07-22T13:20:19;2.20;;;2.00;;
19257;SDS011;9763;48.780;9.212;2022-07-22T13:23:45;2.40;;;2.20;;
19257;SDS011;9763;48.780;9.212;2022-07-22T13:27:10;2.30;;;2.10;;
19257;SDS011;9763;48.780;9.212;2022-07-22T13:30:33;2.10;;;1.90;;
19257;SDS011;9763;48.780;9.212;2022-07-22T13:33:58;2.10;;;1.90;;
19257;SDS011;9763;48.780;9.212;2022-07-22T13:37:22;3.10;;;2.30;;
19257;SDS011;9763;48.780;9.212;2022-07-22T13:40:46;2.47;;;2.27;;
19257;SDS011;9763;48.780;9.212;2022-07-22T13:44:15;3.70;;;2.40;;
19257;SDS011;9763;48.780;9.212;2022-07-22T13:47:39;2.27;;;2.07;;
19257;SDS011;9763;48.780;9.212;2022-07-22T13:51:03;3.37;;;2.40;;
19257;SDS011;9763;48.780;9.212;2022-07-22T13:54:28;2.20;;;2.00;;
19257;SDS011;9763;48.780;9.212;2022-07-22T13:57:52;2.53;;;2.23;;
19257;SDS011;9763;48.780;9.212;2022-07-22T14:01:20;2.10;;;1.90;;
19257;SDS011;9763;48.780;9.212;2022-07-22T14:04:44;2.57;;;2.37;;
19257;SDS011;9763;48.780;9.212;2022-07-22T14:08:08;1.90;;;1.70;;
19257;SDS011;9763;48.780;9.212;2022-07-22T14:11:31;2.20;;;2.00;;
19257;SDS011;9763;48.780;9.212;2022-07-22T14:14:55;2.10;;;1.90;;
19257;SDS011;9763;48.780;9.212;2022-07-22T14:18:20;2.20;;;2.00;;
19257;SDS011;9763;48.780;9.212;2022-07-22T14:21:45;2.50;;;1.83;;
19257;SDS011;9763;48.780;9.212;2022-07-22T14:25:09;2.37;;;2.17;;
19257;SDS011;9763;48.780;9.212;2022-07-22T14:28:33;2.37;;;2.10;;
19257;SDS011;9763;48.780;9.212;2022-07-22T14:31:57;2.10;;;1.90;;
19257;SDS011;9763;48.780;9.212;2022-07-22T14:35:22;2.40;;;2.13;;
19257;SDS011;9763;48.780;9.212;2022-07-22T14:38:45;2.27;;;2.07;;
19257;SDS011;9763;48.780;9.212;2022-07-22T14:42:11;2.53;;;2.03;;
19257;SDS011;9763;48.780;9.212;2022-07-22T14:45:35;2.50;;;2.30;;
19257;SDS011;9763;48.780;9.212;2022-07-22T14:48:58;2.10;;;1.90;;
19257;SDS011;9763;48.780;9.212;2022-07-22T14:52:24;2.37;;;2.17;;
19257;SDS011;9763;48.780;9.212;2022-07-22T14:55:47;1.90;;;1.80;;
19257;SDS011;9763;48.780;9.212;2022-07-22T14:59:11;2.60;;;2.40;;
19257;SDS011;9763;48.780;9.212;2022-07-22T15:02:35;2.10;;;1.90;;
19257;SDS011;9763;48.780;9.212;2022-07-22T15:05:58;2.40;;;2.20;;
19257;SDS011;9763;48.780;9.212;2022-07-22T15:09:23;2.33;;;2.13;;
19257;SDS011;9763;48.780;9.212;2022-07-22T15:12:47;2.30;;;2.10;;
19257;SDS011;9763;48.780;9.212;2022-07-22T15:16:11;2.33;;;2.13;;
19257;SDS011;9763;48.780;9.212;2022-07-22T15:19:34;2.70;;;2.50;;
19257;SDS011;9763;48.780;9.212;2022-07-22T15:22:58;2.83;;;2.20;;
19257;SDS011;9763;48.780;9.212;2022-07-22T15:26:23;2.27;;;2.07;;
19257;SDS011;9763;48.780;9.212;2022-07-22T15:29:47;2.40;;;2.20;;
19257;SDS011;9763;48.780;9.212;2022-07-22T15:33:10;2.40;;;2.20;;
19257;SDS011;9763;48.780;9.212;2022-07-22T15:36:39;3.10;;;2.20;;
19257;SDS011;9763;48.780;9.212;2022-07-22T15:40:03;2.30;;;2.10;;
19257;SDS011;9763;48.780;9.212;2022-07-22T15:43:30;2.00;;;1.90;;
19257;SDS011;9763;48.780;9.212;2022-07-22T15:46:54;2.53;;;2.10;;
19257;SDS011;9763;48.780;9.212;2022-07-22T15:50:18;1.97;;;1.77;;
19257;SDS011;9763;48.780;9.212;2022-07-22T15:53:42;2.43;;;2.23;;
19257;SDS011;9763;48.780;9.212;2022-07-22T15:57:06;2.43;;;2.23;;
19257;SDS011;9763;48.780;9.212;2022-07-22T16:00:49;2.50;;;2.10;;
19257;SDS011;9763;48.780;9.212;2022-07-22T16:04:13;3.60;;;2.00;;
19257;SDS011;9763;48.780;9.212;2022-07-22T16:07:37;3.27;;;2.43;;
19257;SDS011;9763;48.780;9.212;2022-07-22T16:11:01;2.60;;;2.37;;
19257;SDS011;9763;48.780;9.212;2022-07-22T16:14:25;2.40;;;2.20;;
19257;SDS011;9763;48.780;9.212;2022-07-22T16:17:52;2.20;;;2.00;;
19257;SDS011;9763;48.780;9.212;2022-07-22T16:21:16;3.03;;;2.80;;
19257;SDS011;9763;48.780;9.212;2022-07-22T16:24:47;2.40;;;2.20;;
19257;SDS011;9763;48.780;9.212;2022-07-22T16:28:11;2.47;;;2.27;;
19257;SDS011;9763;48.780;9.212;2022-07-22T16:31:34;3.10;;;2.03;;
19257;SDS011;9763;48.780;9.212;2022-07-22T16:34:59;4.73;;;2.30;;
19257;SDS011;9763;48.780;9.212;2022-07-22T16:38:23;2.37;;;2.17;;
19257;SDS011;9763;48.780;9.212;2022-07-22T16:41:47;2.43;;;2.23;;
19257;SDS011;9763;48.780;9.212;2022-07-22T16:45:11;2.57;;;2.10;;
19257;SDS011;9763;48.780;9.212;2022-07-22T16:48:35;2.20;;;2.00;;
19257;SDS011;9763;48.780;9.212;2022-07-22T16:52:00;2.37;;;2.10;;
19257;SDS011;9763;48.780;9.212;2022-07-22T16:55:24;2.33;;;2.13;;
19257;SDS011;9763;48.780;9.212;2022-07-22T16:58:47;2.20;;;1.93;;
19257;SDS011;9763;48.780;9.212;2022-07-22T17:02:11;2.33;;;2.13;;
19257;SDS011;9763;48.780;9.212;2022-07-22T17:05:36;2.17;;;1.97;;
19257;SDS011;9763;48.780;9.212;2022-07-22T17:09:01;2.20;;;2.00;;
19257;SDS011;9763;48.780;9.212;2022-07-22T17:12:25;2.40;;;2.20;;
19257;SDS011;9763;48.780;9.212;2022-07-22T17:15:49;2.67;;;2.00;;
19257;SDS011;9763;48.780;9.212;2022-07-22T17:19:13;2.33;;;2.13;;
19257;SDS011;9763;48.780;9.212;2022-07-22T17:22:36;2.27;;;2.07;;
19257;SDS011;9763;48.780;9.212;2022-07-22T17:26:02;2.20;;;2.00;;
19257;SDS011;9763;48.780;9.212;2022-07-22T17:29:26;2.40;;;2.20;;
19257;SDS011;9763;48.780;9.212;2022-07-22T17:32:50;2.20;;;2.00;;
19257;SDS011;9763;48.780;9.212;2022-07-22T17:36:14;2.40;;;2.20;;
19257;SDS011;9763;48.780;9.212;2022-07-22T17:39:37;2.10;;;1.90;;
19257;SDS011;9763;48.780;9.212;2022-07-22T17:43:02;2.47;;;2.17;;
19257;SDS011;9763;48.780;9.212;2022-07-22T17:46:28;2.13;;;1.97;;
19257;SDS011;9763;48.780;9.212;2022-07-22T17:49:52;2.60;;;2.40;;
19257;SDS011;9763;48.780;9.212;2022-07-22T17:53:15;2.47;;;2.27;;
19257;SDS011;9763;48.780;9.212;2022-07-22T17:56:39;2.83;;;2.40;;
19257;SDS011;9763;48.780;9.212;2022-07-22T18:00:05;2.50;;;2.27;;
19257;SDS011;9763;48.780;9.212;2022-07-22T18:03:30;3.27;;;3.07;;
19257;SDS011;9763;48.780;9.212;2022-07-22T18:06:56;3.30;;;3.00;;
19257;SDS011;9763;48.780;9.212;2022-07-22T18:10:20;3.10;;;2.90;;
19257;SDS011;9763;48.780;9.212;2022-07-22T18:13:44;3.77;;;3.47;;
19257;SDS011;9763;48.780;9.212;2022-07-22T18:17:09;3.87;;;3.57;;
19257;SDS011;9763;48.780;9.212;2022-07-22T18:20:32;3.60;;;3.27;;
19257;SDS011;9763;48.780;9.212;2022-07-22T18:23:56;3.80;;;2.67;;
19257;SDS011;9763;48.780;9.212;2022-07-22T18:27:21;3.87;;;3.57;;
19257;SDS011;9763;48.780;9.212;2022-07-22T18:30:51;4.63;;;4.20;;
19257;SDS011;9763;48.780;9.212;2022-07-22T18:34:17;3.77;;;3.47;;
19257;SDS011;9763;48.780;9.212;2022-07-22T18:37:40;3.57;;;3.27;;
19257;SDS011;9763;48.780;9.212;2022-07-22T18:41:04;4.20;;;3.80;;
19257;SDS011;9763;48.780;9.212;2022-07-22T18:44:29;4.27;;;3.97;;
19257;SDS011;9763;48.780;9.212;2022-07-22T18:47:53;4.27;;;3.87;;
19257;SDS011;9763;48.780;9.212;2022-07-22T18:51:18;4.80;;;3.60;;
19257;SDS011;9763;48.780;9.212;2022-07-22T18:54:48;5.50;;;3.53;;
19257;SDS011;9763;48.780;9.212;2022-07-22T18:58:11;3.47;;;3.17;;
19257;SDS011;9763;48.780;9.212;2022-07-22T19:01:35;3.27;;;2.97;;
19257;SDS011;9763;48.780;9.212;2022-07-22T19:04:59;3.57;;;3.10;;
19257;SDS011;9763;48.780;9.212;2022-07-22T19:08:24;3.57;;;3.23;;
19257;SDS011;9763;48.780;9.212;2022-07-22T19:11:49;3.40;;;3.10;;
19257;SDS011;9763;48.780;9.212;2022-07-22T19:15:12;4.07;;;3.77;;
19257;SDS011;9763;48.780;9.212;2022-07-22T19:18:36;3.20;;;3.00;;
19257;SDS011;9763;48.780;9.212;2022-07-22T19:22:00;3.27;;;2.83;;
19257;SDS011;9763;48.780;9.212;2022-07-22T19:25:25;2.93;;;2.63;;
19257;SDS011;9763;48.780;9.212;2022-07-22T19:28:49;2.70;;;2.50;;
19257;SDS011;9763;48.780;9.212;2022-07-22T19:32:12;2.90;;;2.70;;
19257;SDS011;9763;48.780;9.212;2022-07-22T19:35:36;3.13;;;2.93;;
19257;SDS011;9763;48.780;9.212;2022-07-22T19:39:00;3.00;;;2.77;;
19257;SDS011;9763;48.780;9.212;2022-07-22T19:42:25;3.10;;;2.80;;
19257;SDS011;9763;48.780;9.212;2022-07-22T19:45:49;2.80;;;2.60;;
19257;SDS011;9763;48.780;9.212;2022-07-22T19:49:13;2.77;;;2.57;;
19257;SDS011;9763;48.780;9.212;2022-07-22T19:52:37;3.30;;;2.70;;
19257;SDS011;9763;48.780;9.212;2022-07-22T19:56:01;3.07;;;2.77;;
19257;SDS011;9763;48.780;9.212;2022-07-22T19:59:26;2.80;;;2.60;;
19257;SDS011;9763;48.780;9.212;2022-07-22T20:02:49;2.70;;;2.50;;
19257;SDS011;9763;48.780;9.212;2022-07-22T20:06:13;2.63;;;2.43;;
19257;SDS011;9763;48.780;9.212;2022-07-22T20:09:37;3.40;;;3.10;;
19257;SDS011;9763;48.780;9.212;2022-07-22T20:13:00;2.87;;;2.67;;
19257;SDS011;9763;48.780;9.212;2022-07-22T20:16:25;3.20;;;3.00;;
19257;SDS011;9763;48.780;9.212;2022-07-22T20:19:49;3.23;;;2.93;;
19257;SDS011;9763;48.780;9.212;2022-07-22T20:23:14;3.50;;;3.20;;
19257;SDS011;9763;48.780;9.212;2022-07-22T20:26:38;3.40;;;3.10;;
19257;SDS011;9763;48.780;9.212;2022-07-22T20:30:03;3.37;;;3.07;;
19257;SDS011;9763;48.780;9.212;2022-07-22T20:33:29;3.10;;;2.80;;
19257;SDS011;9763;48.780;9.212;2022-07-22T20:36:53;4.83;;;3.13;;
19257;SDS011;9763;48.780;9.212;2022-07-22T20:40:17;3.67;;;3.37;;
19257;SDS011;9763;48.780;9.212;2022-07-22T20:43:40;3.23;;;2.83;;
19257;SDS011;9763;48.780;9.212;2022-07-22T20:47:04;3.50;;;3.20;;
19257;SDS011;9763;48.780;9.212;2022-07-22T20:50:29;3.80;;;3.03;;
19257;SDS011;9763;48.780;9.212;2022-07-22T20:53:54;3.10;;;2.90;;
19257;SDS011;9763;48.780;9.212;2022-07-22T20:57:18;3.30;;;3.00;;
19257;SDS011;9763;48.780;9.212;2022-07-22T21:00:41;3.10;;;2.90;;
19257;SDS011;9763;48.780;9.212;2022-07-22T21:04:05;3.43;;;3.10;;
19257;SDS011;9763;48.780;9.212;2022-07-22T21:07:30;3.30;;;2.90;;
19257;SDS011;9763;48.780;9.212;2022-07-22T21:10:55;3.17;;;2.87;;